createdAt,value
2022-09-12T00:00:01.407Z,1017.58
2022-09-12T00:01:01.869Z,1017.61
2022-09-12T00:02:01.705Z,1017.57
2022-09-12T00:03:01.647Z,1017.57
2022-09-12T00:04:01.887Z,1017.55
2022-09-12T00:05:01.587Z,1017.51
2022-09-12T00:06:01.755Z,1017.56
2022-09-12T00:07:01.577Z,1017.55
2022-09-12T00:08:01.628Z,1017.53
2022-09-12T00:09:01.651Z,1017.50
2022-09-12T00:10:02.194Z,1017.49
2022-09-12T00:11:01.746Z,1017.51
2022-09-12T00:12:02.105Z,1017.47
2022-09-12T00:13:01.412Z,1017.47
2022-09-12T00:14:01.415Z,1017.47
2022-09-12T00:15:01.671Z,1017.47
2022-09-12T00:16:01.701Z,1017.47
2022-09-12T00:17:01.571Z,1017.45
2022-09-12T00:18:01.228Z,1017.44
2022-09-12T00:19:01.398Z,1017.50
2022-09-12T00:20:01.611Z,1017.45
2022-09-12T00:21:01.617Z,1017.46
2022-09-12T00:22:01.432Z,1017.47
2022-09-12T00:23:01.075Z,1017.47
2022-09-12T00:24:01.112Z,1017.42
2022-09-12T00:25:01.119Z,1017.45
2022-09-12T00:26:01.049Z,1017.44
2022-09-12T00:27:01.043Z,1017.44
2022-09-12T00:28:01.054Z,1017.46
2022-09-12T00:29:01.089Z,1017.42
2022-09-12T00:30:01.063Z,1017.49
2022-09-12T00:31:01.000Z,1017.42
2022-09-12T00:32:01.034Z,1017.48
2022-09-12T00:33:01.882Z,1017.47
2022-09-12T00:34:01.159Z,1017.45
2022-09-12T00:35:01.062Z,1017.47
2022-09-12T00:36:00.937Z,1017.44
2022-09-12T00:37:00.966Z,1017.48
2022-09-12T00:38:00.929Z,1017.45
2022-09-12T00:39:00.983Z,1017.49
2022-09-12T00:40:01.021Z,1017.43
2022-09-12T00:41:00.953Z,1017.42
2022-09-12T00:42:00.888Z,1017.42
2022-09-12T00:43:00.862Z,1017.43
2022-09-12T00:44:00.879Z,1017.43
2022-09-12T00:45:02.421Z,1017.43
2022-09-12T00:46:00.933Z,1017.40
2022-09-12T00:47:00.819Z,1017.40
2022-09-12T00:48:00.821Z,1017.40
2022-09-12T00:49:00.836Z,1017.44
2022-09-12T00:50:00.974Z,1017.44
2022-09-12T00:51:00.766Z,1017.44
2022-09-12T00:52:00.805Z,1017.42
2022-09-12T00:53:00.773Z,1017.39
2022-09-12T00:54:00.790Z,1017.38
2022-09-12T00:55:00.769Z,1017.39
2022-09-12T00:56:00.798Z,1017.35
2022-09-12T00:57:00.806Z,1017.39
2022-09-12T00:58:00.820Z,1017.36
2022-09-12T00:59:00.685Z,1017.35
2022-09-12T01:00:00.692Z,1017.36
2022-09-12T01:01:00.918Z,1017.39
2022-09-12T01:02:00.816Z,1017.36
2022-09-12T01:03:00.650Z,1017.39
2022-09-12T01:04:00.679Z,1017.38
2022-09-12T01:05:00.615Z,1017.34
2022-09-12T01:06:00.623Z,1017.30
2022-09-12T01:07:00.582Z,1017.29
2022-09-12T01:08:00.591Z,1017.28
2022-09-12T01:09:00.619Z,1017.24
2022-09-12T01:10:00.714Z,1017.21
2022-09-12T01:11:00.560Z,1017.22
2022-09-12T01:12:00.645Z,1017.26
2022-09-12T01:13:00.534Z,1017.21
2022-09-12T01:14:00.595Z,1017.19
2022-09-12T01:15:00.496Z,1017.16
2022-09-12T01:16:00.529Z,1017.21
2022-09-12T01:17:00.530Z,1017.18
2022-09-12T01:18:00.493Z,1017.22
2022-09-12T01:19:01.386Z,1017.19
2022-09-12T01:20:00.469Z,1017.25
2022-09-12T01:21:00.459Z,1017.22
2022-09-12T01:22:00.475Z,1017.23
2022-09-12T01:23:00.476Z,1017.22
2022-09-12T01:24:00.446Z,1017.25
2022-09-12T01:25:00.377Z,1017.22
2022-09-12T01:26:00.424Z,1017.22
2022-09-12T01:27:00.392Z,1017.22
2022-09-12T01:28:00.447Z,1017.21
2022-09-12T01:29:00.414Z,1017.21
2022-09-12T01:30:00.373Z,1017.17
2022-09-12T01:31:00.469Z,1017.19
2022-09-12T01:32:00.485Z,1017.17
2022-09-12T01:33:00.386Z,1017.15
2022-09-12T01:34:00.606Z,1017.14
2022-09-12T01:35:01.130Z,1017.15
2022-09-12T01:36:00.538Z,1017.14
2022-09-12T01:37:00.731Z,1017.11
2022-09-12T01:38:00.327Z,1017.14
2022-09-12T01:39:00.411Z,1017.10
2022-09-12T01:40:00.702Z,1017.14
2022-09-12T01:41:00.286Z,1017.10
2022-09-12T01:42:00.391Z,1017.12
2022-09-12T01:43:01.020Z,1017.10
2022-09-12T01:44:00.471Z,1017.09
2022-09-12T01:45:00.293Z,1017.13
2022-09-12T01:46:00.269Z,1017.06
2022-09-12T01:47:00.459Z,1017.11
2022-09-12T01:48:00.410Z,1017.10
2022-09-12T01:49:00.155Z,1017.10
2022-09-12T01:50:00.120Z,1017.07
2022-09-12T01:51:00.323Z,1017.07
2022-09-12T01:52:00.238Z,1017.06
2022-09-12T01:53:01.017Z,1017.06
2022-09-12T01:54:00.412Z,1017.04
2022-09-12T01:55:00.124Z,1017.03
2022-09-12T01:56:00.024Z,1017.00
2022-09-12T01:57:00.026Z,1017.02
2022-09-12T01:58:00.054Z,1016.96
2022-09-12T01:59:00.016Z,1017.00
2022-09-12T02:00:00.001Z,1016.99
2022-09-12T02:01:00.024Z,1016.99
2022-09-12T02:02:00.028Z,1016.95
2022-09-12T02:02:59.949Z,1016.91
2022-09-12T02:03:59.970Z,1016.95
2022-09-12T02:04:59.966Z,1016.90
2022-09-12T02:05:59.923Z,1016.91
2022-09-12T02:06:59.905Z,1016.88
2022-09-12T02:07:59.896Z,1016.96
2022-09-12T02:08:59.918Z,1016.94
2022-09-12T02:09:59.941Z,1016.91
2022-09-12T02:10:59.865Z,1016.94
2022-09-12T02:11:59.905Z,1016.93
2022-09-12T02:12:59.891Z,1016.89
2022-09-12T02:13:59.843Z,1016.91
2022-09-12T02:14:59.878Z,1016.92
2022-09-12T02:15:59.912Z,1016.85
2022-09-12T02:16:59.836Z,1016.88
2022-09-12T02:17:59.844Z,1016.85
2022-09-12T02:18:59.810Z,1016.89
2022-09-12T02:19:59.763Z,1016.75
2022-09-12T02:20:59.766Z,1016.80
2022-09-12T02:21:59.799Z,1016.77
2022-09-12T02:22:59.721Z,1016.77
2022-09-12T02:23:59.706Z,1016.76
2022-09-12T02:24:59.722Z,1016.68
2022-09-12T02:25:59.714Z,1016.68
2022-09-12T02:26:59.710Z,1016.72
2022-09-12T02:27:59.753Z,1016.76
2022-09-12T02:28:59.663Z,1016.70
2022-09-12T02:29:59.662Z,1016.72
2022-09-12T02:30:59.757Z,1016.75
2022-09-12T02:31:59.630Z,1016.77
2022-09-12T02:32:59.618Z,1016.73
2022-09-12T02:33:59.650Z,1016.76
2022-09-12T02:34:59.634Z,1016.79
2022-09-12T02:35:59.590Z,1016.74
2022-09-12T02:36:59.668Z,1016.73
2022-09-12T02:37:59.574Z,1016.68
2022-09-12T02:38:59.556Z,1016.68
2022-09-12T02:39:59.582Z,1016.66
2022-09-12T02:40:59.529Z,1016.66
2022-09-12T02:41:59.530Z,1016.65
2022-09-12T02:42:59.525Z,1016.59
2022-09-12T02:43:59.490Z,1016.62
2022-09-12T02:44:59.481Z,1016.60
2022-09-12T02:45:59.535Z,1016.60
2022-09-12T02:46:59.454Z,1016.56
2022-09-12T02:47:59.444Z,1016.62
2022-09-12T02:48:59.447Z,1016.60
2022-09-12T02:49:59.494Z,1016.58
2022-09-12T02:50:59.471Z,1016.57
2022-09-12T02:51:59.448Z,1016.60
2022-09-12T02:52:59.629Z,1016.55
2022-09-12T02:53:59.859Z,1016.55
2022-09-12T02:54:59.868Z,1016.59
2022-09-12T02:55:59.698Z,1016.60
2022-09-12T02:56:59.820Z,1016.61
2022-09-12T02:57:59.892Z,1016.55
2022-09-12T02:58:59.803Z,1016.57
2022-09-12T02:59:59.765Z,1016.51
2022-09-12T03:00:59.831Z,1016.54
2022-09-12T03:01:59.963Z,1016.51
2022-09-12T03:02:59.803Z,1016.49
2022-09-12T03:03:59.803Z,1016.51
2022-09-12T03:04:59.923Z,1016.49
2022-09-12T03:05:59.712Z,1016.45
2022-09-12T03:06:59.709Z,1016.46
2022-09-12T03:07:59.735Z,1016.45
2022-09-12T03:08:59.653Z,1016.43
2022-09-12T03:09:59.940Z,1016.42
2022-09-12T03:10:59.696Z,1016.43
2022-09-12T03:11:59.574Z,1016.42
2022-09-12T03:12:59.734Z,1016.38
2022-09-12T03:13:59.480Z,1016.35
2022-09-12T03:14:59.625Z,1016.34
2022-09-12T03:15:59.160Z,1016.31
2022-09-12T03:16:59.704Z,1016.31
2022-09-12T03:17:59.515Z,1016.27
2022-09-12T03:18:59.558Z,1016.29
2022-09-12T03:19:59.526Z,1016.33
2022-09-12T03:20:59.621Z,1016.28
2022-09-12T03:21:59.155Z,1016.25
2022-09-12T03:22:59.053Z,1016.22
2022-09-12T03:23:59.066Z,1016.25
2022-09-12T03:24:59.060Z,1016.22
2022-09-12T03:25:59.038Z,1016.18
2022-09-12T03:26:59.875Z,1016.13
2022-09-12T03:27:59.046Z,1016.18
2022-09-12T03:28:59.906Z,1016.08
2022-09-12T03:29:59.045Z,1016.08
2022-09-12T03:30:59.038Z,1016.11
2022-09-12T03:31:58.975Z,1016.11
2022-09-12T03:32:58.956Z,1016.15
2022-09-12T03:33:59.008Z,1016.13
2022-09-12T03:34:59.903Z,1016.12
2022-09-12T03:35:58.965Z,1016.15
2022-09-12T03:36:58.923Z,1016.10
2022-09-12T03:37:58.901Z,1016.12
2022-09-12T03:38:58.944Z,1016.15
2022-09-12T03:39:59.052Z,1016.11
2022-09-12T03:40:58.892Z,1016.07
2022-09-12T03:41:58.857Z,1016.06
2022-09-12T03:42:58.833Z,1016.06
2022-09-12T03:43:58.849Z,1016.05
2022-09-12T03:44:58.818Z,1016.03
2022-09-12T03:45:58.938Z,1016.08
2022-09-12T03:46:58.885Z,1016.02
2022-09-12T03:47:58.882Z,1016.03
2022-09-12T03:48:58.802Z,1016.02
2022-09-12T03:49:58.869Z,1016.02
2022-09-12T03:50:58.736Z,1015.98
2022-09-12T03:51:58.802Z,1015.94
2022-09-12T03:52:58.835Z,1016.00
2022-09-12T03:53:58.849Z,1016.01
2022-09-12T03:54:58.723Z,1016.02
2022-09-12T03:55:58.695Z,1016.02
2022-09-12T03:56:58.708Z,1016.00
2022-09-12T03:57:58.774Z,1015.98
2022-09-12T03:58:58.741Z,1016.00
2022-09-12T03:59:58.639Z,1015.99
2022-09-12T04:00:59.413Z,1016.01
2022-09-12T04:01:58.679Z,1015.94
2022-09-12T04:02:58.665Z,1015.98
2022-09-12T04:03:58.732Z,1015.97
2022-09-12T04:04:58.619Z,1015.99
2022-09-12T04:06:01.550Z,1015.96
2022-09-12T04:06:58.615Z,1016.00
2022-09-12T04:07:58.652Z,1015.97
2022-09-12T04:08:58.624Z,1015.96
2022-09-12T04:09:58.582Z,1015.91
2022-09-12T04:10:58.626Z,1015.94
2022-09-12T04:11:58.572Z,1015.89
2022-09-12T04:12:58.612Z,1015.90
2022-09-12T04:13:59.379Z,1015.88
2022-09-12T04:14:58.462Z,1015.90
2022-09-12T04:15:58.521Z,1015.91
2022-09-12T04:16:58.468Z,1015.90
2022-09-12T04:18:02.448Z,1015.90
2022-09-12T04:18:58.444Z,1015.93
2022-09-12T04:19:58.421Z,1015.90
2022-09-12T04:20:58.394Z,1015.88
2022-09-12T04:21:58.429Z,1015.94
2022-09-12T04:22:58.484Z,1015.95
2022-09-12T04:23:58.446Z,1015.94
2022-09-12T04:24:58.511Z,1015.90
2022-09-12T04:25:58.364Z,1015.96
2022-09-12T04:26:58.418Z,1015.90
2022-09-12T04:27:58.449Z,1015.95
2022-09-12T04:28:58.397Z,1015.94
2022-09-12T04:29:58.359Z,1015.91
2022-09-12T04:30:58.343Z,1015.91
2022-09-12T04:31:58.354Z,1015.94
2022-09-12T04:32:58.383Z,1015.94
2022-09-12T04:33:58.343Z,1015.91
2022-09-12T04:34:58.283Z,1015.95
2022-09-12T04:35:58.247Z,1015.94
2022-09-12T04:36:58.257Z,1015.91
2022-09-12T04:37:58.260Z,1015.91
2022-09-12T04:38:58.259Z,1015.90
2022-09-12T04:39:58.347Z,1015.89
2022-09-12T04:40:58.264Z,1015.90
2022-09-12T04:41:58.333Z,1015.90
2022-09-12T04:42:58.157Z,1015.89
2022-09-12T04:43:58.142Z,1015.86
2022-09-12T04:44:58.136Z,1015.87
2022-09-12T04:45:58.213Z,1015.85
2022-09-12T04:46:58.104Z,1015.82
2022-09-12T04:47:58.086Z,1015.77
2022-09-12T04:48:58.079Z,1015.84
2022-09-12T04:49:58.107Z,1015.81
2022-09-12T04:50:58.049Z,1015.77
2022-09-12T04:51:58.147Z,1015.79
2022-09-12T04:52:58.041Z,1015.79
2022-09-12T04:53:58.060Z,1015.80
2022-09-12T04:54:58.072Z,1015.80
2022-09-12T04:55:58.046Z,1015.82
2022-09-12T04:56:58.041Z,1015.80
2022-09-12T04:57:58.092Z,1015.77
2022-09-12T04:58:57.957Z,1015.80
2022-09-12T04:59:57.976Z,1015.78
2022-09-12T05:00:57.999Z,1015.85
2022-09-12T05:01:59.473Z,1015.83
2022-09-12T05:02:57.970Z,1015.79
2022-09-12T05:03:58.009Z,1015.83
2022-09-12T05:04:57.903Z,1015.77
2022-09-12T05:05:57.893Z,1015.81
2022-09-12T05:06:57.963Z,1015.79
2022-09-12T05:07:57.928Z,1015.72
2022-09-12T05:08:57.869Z,1015.74
2022-09-12T05:09:57.927Z,1015.72
2022-09-12T05:10:57.881Z,1015.73
2022-09-12T05:12:05.798Z,1015.73
2022-09-12T05:12:57.814Z,1015.71
2022-09-12T05:13:58.717Z,1015.71
2022-09-12T05:14:57.805Z,1015.68
2022-09-12T05:15:57.827Z,1015.71
2022-09-12T05:16:57.857Z,1015.69
2022-09-12T05:17:57.786Z,1015.71
2022-09-12T05:18:57.836Z,1015.65
2022-09-12T05:19:57.786Z,1015.71
2022-09-12T05:20:57.746Z,1015.68
2022-09-12T05:21:57.817Z,1015.72
2022-09-12T05:22:57.712Z,1015.70
2022-09-12T05:23:57.820Z,1015.70
2022-09-12T05:24:57.791Z,1015.72
2022-09-12T05:25:57.860Z,1015.78
2022-09-12T05:26:57.961Z,1015.74
2022-09-12T05:27:57.785Z,1015.72
2022-09-12T05:29:04.422Z,1015.75
2022-09-12T05:30:03.629Z,1015.72
2022-09-12T05:31:03.680Z,1015.76
2022-09-12T05:31:57.607Z,1015.73
2022-09-12T05:32:57.569Z,1015.76
2022-09-12T05:33:57.722Z,1015.69
2022-09-12T05:34:57.930Z,1015.73
2022-09-12T05:35:57.921Z,1015.71
2022-09-12T05:36:57.566Z,1015.73
2022-09-12T05:37:57.570Z,1015.68
2022-09-12T05:38:57.515Z,1015.74
2022-09-12T05:39:57.668Z,1015.75
2022-09-12T05:40:57.501Z,1015.77
2022-09-12T05:41:57.599Z,1015.76
2022-09-12T05:42:57.489Z,1015.79
2022-09-12T05:43:57.472Z,1015.82
2022-09-12T05:44:57.442Z,1015.81
2022-09-12T05:45:57.549Z,1015.85
2022-09-12T05:46:57.484Z,1015.86
2022-09-12T05:47:57.416Z,1015.91
2022-09-12T05:48:57.386Z,1015.88
2022-09-12T05:49:57.451Z,1015.91
2022-09-12T05:50:57.391Z,1015.85
2022-09-12T05:51:57.484Z,1015.79
2022-09-12T05:52:57.352Z,1015.78
2022-09-12T05:53:57.358Z,1015.81
2022-09-12T05:54:57.363Z,1015.83
2022-09-12T05:55:57.371Z,1015.85
2022-09-12T05:56:57.383Z,1015.84
2022-09-12T05:57:57.402Z,1015.90
2022-09-12T05:58:57.288Z,1015.89
2022-09-12T05:59:57.331Z,1015.85
2022-09-12T06:00:57.266Z,1015.77
2022-09-12T06:01:57.369Z,1015.83
2022-09-12T06:02:58.265Z,1015.82
2022-09-12T06:03:57.265Z,1015.78
2022-09-12T06:04:57.203Z,1015.84
2022-09-12T06:05:57.235Z,1015.81
2022-09-12T06:06:57.309Z,1015.84
2022-09-12T06:07:57.245Z,1015.83
2022-09-12T06:08:57.173Z,1015.83
2022-09-12T06:09:57.209Z,1015.79
2022-09-12T06:11:00.396Z,1015.83
2022-09-12T06:11:57.256Z,1015.80
2022-09-12T06:12:57.187Z,1015.86
2022-09-12T06:13:57.177Z,1015.79
2022-09-12T06:14:57.243Z,1015.78
2022-09-12T06:15:57.202Z,1015.76
2022-09-12T06:16:57.162Z,1015.75
2022-09-12T06:17:57.247Z,1015.73
2022-09-12T06:18:57.100Z,1015.72
2022-09-12T06:19:57.052Z,1015.71
2022-09-12T06:20:57.064Z,1015.75
2022-09-12T06:21:57.108Z,1015.75
2022-09-12T06:22:57.066Z,1015.75
2022-09-12T06:23:57.001Z,1015.82
2022-09-12T06:24:58.052Z,1015.77
2022-09-12T06:25:56.997Z,1015.75
2022-09-12T06:26:56.963Z,1015.76
2022-09-12T06:27:57.039Z,1015.78
2022-09-12T06:28:56.946Z,1015.77
2022-09-12T06:29:56.949Z,1015.73
2022-09-12T06:30:57.016Z,1015.73
2022-09-12T06:31:56.911Z,1015.73
2022-09-12T06:32:57.950Z,1015.70
2022-09-12T06:33:56.987Z,1015.68
2022-09-12T06:34:56.953Z,1015.72
2022-09-12T06:35:56.867Z,1015.73
2022-09-12T06:36:56.918Z,1015.68
2022-09-12T06:37:56.914Z,1015.64
2022-09-12T06:38:56.880Z,1015.65
2022-09-12T06:39:56.972Z,1015.63
2022-09-12T06:40:56.825Z,1015.66
2022-09-12T06:41:56.842Z,1015.67
2022-09-12T06:42:56.788Z,1015.68
2022-09-12T06:43:58.453Z,1015.68
2022-09-12T06:44:56.806Z,1015.67
2022-09-12T06:45:56.960Z,1015.66
2022-09-12T06:46:56.747Z,1015.64
2022-09-12T06:47:56.875Z,1015.62
2022-09-12T06:48:56.781Z,1015.64
2022-09-12T06:49:56.760Z,1015.60
2022-09-12T06:50:56.731Z,1015.55
2022-09-12T06:51:56.768Z,1015.56
2022-09-12T06:52:56.727Z,1015.57
2022-09-12T06:53:56.693Z,1015.57
2022-09-12T06:54:56.719Z,1015.58
2022-09-12T06:55:56.712Z,1015.60
2022-09-12T06:56:56.664Z,1015.58
2022-09-12T06:57:56.728Z,1015.59
2022-09-12T06:58:56.815Z,1015.58
2022-09-12T06:59:56.999Z,1015.54
2022-09-12T07:00:59.079Z,1015.51
2022-09-12T07:01:56.753Z,1015.51
2022-09-12T07:02:56.745Z,1015.49
2022-09-12T07:03:56.969Z,1015.50
2022-09-12T07:04:56.641Z,1015.54
2022-09-12T07:05:56.657Z,1015.56
2022-09-12T07:06:56.817Z,1015.57
2022-09-12T07:07:57.445Z,1015.57
2022-09-12T07:08:56.651Z,1015.58
2022-09-12T07:09:56.873Z,1015.59
2022-09-12T07:10:56.548Z,1015.56
2022-09-12T07:11:56.682Z,1015.59
2022-09-12T07:12:56.483Z,1015.61
2022-09-12T07:13:56.756Z,1015.64
2022-09-12T07:14:56.609Z,1015.62
2022-09-12T07:15:56.473Z,1015.71
2022-09-12T07:16:56.601Z,1015.66
2022-09-12T07:17:56.574Z,1015.66
2022-09-12T07:18:56.604Z,1015.65
2022-09-12T07:19:56.533Z,1015.68
2022-09-12T07:20:56.730Z,1015.65
2022-09-12T07:21:58.767Z,1015.69
2022-09-12T07:22:56.642Z,1015.69
2022-09-12T07:23:56.578Z,1015.72
2022-09-12T07:24:56.514Z,1015.72
2022-09-12T07:25:56.503Z,1015.71
2022-09-12T07:26:56.801Z,1015.70
2022-09-12T07:27:56.601Z,1015.74
2022-09-12T07:29:08.243Z,1015.69
2022-09-12T07:29:56.829Z,1015.63
2022-09-12T07:30:56.347Z,1015.65
2022-09-12T07:31:56.533Z,1015.67
2022-09-12T07:32:56.550Z,1015.64
2022-09-12T07:33:56.637Z,1015.65
2022-09-12T07:34:56.480Z,1015.68
2022-09-12T07:35:56.219Z,1015.68
2022-09-12T07:36:56.508Z,1015.67
2022-09-12T07:37:56.576Z,1015.68
2022-09-12T07:38:57.516Z,1015.71
2022-09-12T07:39:56.549Z,1015.68
2022-09-12T07:40:56.364Z,1015.67
2022-09-12T07:41:56.231Z,1015.64
2022-09-12T07:42:56.412Z,1015.67
2022-09-12T07:43:56.180Z,1015.64
2022-09-12T07:44:56.418Z,1015.70
2022-09-12T07:45:56.391Z,1015.70
2022-09-12T07:46:56.185Z,1015.71
2022-09-12T07:47:56.177Z,1015.72
2022-09-12T07:48:56.322Z,1015.63
2022-09-12T07:49:56.316Z,1015.64
2022-09-12T07:50:56.421Z,1015.65
2022-09-12T07:51:56.259Z,1015.63
2022-09-12T07:52:56.277Z,1015.60
2022-09-12T07:53:56.162Z,1015.60
2022-09-12T07:54:56.116Z,1015.63
2022-09-12T07:55:56.028Z,1015.61
2022-09-12T07:56:56.008Z,1015.60
2022-09-12T07:57:56.066Z,1015.59
2022-09-12T07:58:56.110Z,1015.56
2022-09-12T07:59:56.024Z,1015.60
2022-09-12T08:00:56.087Z,1015.61
2022-09-12T08:01:55.939Z,1015.58
2022-09-12T08:02:55.944Z,1015.54
2022-09-12T08:03:56.269Z,1015.58
2022-09-12T08:04:56.071Z,1015.58
2022-09-12T08:05:56.071Z,1015.55
2022-09-12T08:06:56.109Z,1015.57
2022-09-12T08:07:57.763Z,1015.57
2022-09-12T08:08:55.976Z,1015.56
2022-09-12T08:09:56.021Z,1015.55
2022-09-12T08:10:56.597Z,1015.60
2022-09-12T08:11:56.013Z,1015.56
2022-09-12T08:12:55.900Z,1015.52
2022-09-12T08:13:56.327Z,1015.57
2022-09-12T08:14:55.962Z,1015.55
2022-09-12T08:15:56.189Z,1015.56
2022-09-12T08:16:55.935Z,1015.48
2022-09-12T08:17:55.952Z,1015.50
2022-09-12T08:18:55.806Z,1015.45
2022-09-12T08:19:55.905Z,1015.50
2022-09-12T08:20:55.864Z,1015.51
2022-09-12T08:21:56.635Z,1015.47
2022-09-12T08:22:55.713Z,1015.48
2022-09-12T08:23:56.068Z,1015.47
2022-09-12T08:24:55.842Z,1015.47
2022-09-12T08:25:55.919Z,1015.46
2022-09-12T08:26:55.829Z,1015.47
2022-09-12T08:27:55.946Z,1015.43
2022-09-12T08:28:55.856Z,1015.48
2022-09-12T08:29:55.864Z,1015.53
2022-09-12T08:30:56.045Z,1015.53
2022-09-12T08:31:57.384Z,1015.55
2022-09-12T08:32:55.712Z,1015.50
2022-09-12T08:33:55.707Z,1015.53
2022-09-12T08:34:55.792Z,1015.55
2022-09-12T08:35:55.760Z,1015.52
2022-09-12T08:36:55.670Z,1015.53
2022-09-12T08:37:55.774Z,1015.54
2022-09-12T08:38:59.345Z,1015.49
2022-09-12T08:39:56.387Z,1015.51
2022-09-12T08:40:55.595Z,1015.53
2022-09-12T08:41:55.525Z,1015.53
2022-09-12T08:42:55.651Z,1015.55
2022-09-12T08:43:56.956Z,1015.57
2022-09-12T08:44:56.425Z,1015.56
2022-09-12T08:45:55.727Z,1015.55
2022-09-12T08:46:55.505Z,1015.56
2022-09-12T08:47:55.631Z,1015.54
2022-09-12T08:48:55.753Z,1015.54
2022-09-12T08:49:55.664Z,1015.57
2022-09-12T08:50:55.582Z,1015.58
2022-09-12T08:51:55.854Z,1015.55
2022-09-12T08:52:55.618Z,1015.55
2022-09-12T08:53:55.489Z,1015.53
2022-09-12T08:54:55.499Z,1015.51
2022-09-12T08:55:55.590Z,1015.49
2022-09-12T08:56:55.667Z,1015.51
2022-09-12T08:57:55.608Z,1015.55
2022-09-12T08:58:55.445Z,1015.54
2022-09-12T08:59:55.552Z,1015.51
2022-09-12T09:00:55.486Z,1015.54
2022-09-12T09:01:55.532Z,1015.49
2022-09-12T09:02:55.507Z,1015.48
2022-09-12T09:03:55.436Z,1015.47
2022-09-12T09:04:55.380Z,1015.46
2022-09-12T09:05:55.366Z,1015.45
2022-09-12T09:06:57.085Z,1015.44
2022-09-12T09:07:55.490Z,1015.43
2022-09-12T09:08:55.239Z,1015.43
2022-09-12T09:09:55.331Z,1015.38
2022-09-12T09:10:55.400Z,1015.41
2022-09-12T09:11:55.265Z,1015.38
2022-09-12T09:12:55.264Z,1015.36
2022-09-12T09:13:55.338Z,1015.40
2022-09-12T09:14:55.242Z,1015.38
2022-09-12T09:15:55.479Z,1015.37
2022-09-12T09:16:55.411Z,1015.42
2022-09-12T09:17:55.159Z,1015.44
2022-09-12T09:18:55.326Z,1015.32
2022-09-12T09:19:55.292Z,1015.37
2022-09-12T09:20:55.068Z,1015.39
2022-09-12T09:21:55.284Z,1015.40
2022-09-12T09:22:55.182Z,1015.34
2022-09-12T09:23:55.354Z,1015.34
2022-09-12T09:24:55.231Z,1015.39
2022-09-12T09:25:55.085Z,1015.39
2022-09-12T09:26:55.964Z,1015.39
2022-09-12T09:27:55.239Z,1015.39
2022-09-12T09:28:55.086Z,1015.40
2022-09-12T09:29:55.166Z,1015.48
2022-09-12T09:30:55.315Z,1015.43
2022-09-12T09:31:55.312Z,1015.40
2022-09-12T09:32:55.212Z,1015.42
2022-09-12T09:33:55.792Z,1015.46
2022-09-12T09:34:55.042Z,1015.39
2022-09-12T09:35:54.927Z,1015.45
2022-09-12T09:36:55.034Z,1015.45
2022-09-12T09:37:58.599Z,1015.39
2022-09-12T09:38:55.096Z,1015.38
2022-09-12T09:39:55.273Z,1015.36
2022-09-12T09:40:55.096Z,1015.37
2022-09-12T09:41:55.235Z,1015.28
2022-09-12T09:42:55.042Z,1015.22
2022-09-12T09:43:54.862Z,1015.21
2022-09-12T09:44:54.975Z,1015.25
2022-09-12T09:45:55.011Z,1015.20
2022-09-12T09:46:54.803Z,1015.20
2022-09-12T09:47:54.770Z,1015.21
2022-09-12T09:48:54.717Z,1015.23
2022-09-12T09:49:54.892Z,1015.21
2022-09-12T09:50:56.556Z,1015.21
2022-09-12T09:51:57.671Z,1015.24
2022-09-12T09:52:54.855Z,1015.26
2022-09-12T09:53:54.699Z,1015.28
2022-09-12T09:54:54.671Z,1015.27
2022-09-12T09:55:54.761Z,1015.23
2022-09-12T09:56:54.775Z,1015.28
2022-09-12T09:57:54.816Z,1015.27
2022-09-12T09:58:54.741Z,1015.25
2022-09-12T09:59:54.849Z,1015.23
2022-09-12T10:00:56.718Z,1015.19
2022-09-12T10:01:54.775Z,1015.18
2022-09-12T10:02:54.837Z,1015.21
2022-09-12T10:03:54.658Z,1015.17
2022-09-12T10:04:54.647Z,1015.18
2022-09-12T10:05:54.712Z,1015.16
2022-09-12T10:06:54.588Z,1015.13
2022-09-12T10:07:54.704Z,1015.12
2022-09-12T10:08:54.694Z,1015.13
2022-09-12T10:09:54.878Z,1015.08
2022-09-12T10:10:54.487Z,1015.03
2022-09-12T10:11:54.783Z,1015.02
2022-09-12T10:12:54.548Z,1015.04
2022-09-12T10:13:54.506Z,1015.04
2022-09-12T10:14:54.584Z,1014.97
2022-09-12T10:15:54.874Z,1015.03
2022-09-12T10:16:54.790Z,1014.99
2022-09-12T10:17:54.686Z,1014.98
2022-09-12T10:18:54.455Z,1014.99
2022-09-12T10:20:10.904Z,1015.03
2022-09-12T10:20:54.679Z,1014.97
2022-09-12T10:21:54.638Z,1015.00
2022-09-12T10:22:54.714Z,1014.98
2022-09-12T10:23:54.701Z,1014.97
2022-09-12T10:24:54.765Z,1015.00
2022-09-12T10:25:54.518Z,1014.93
2022-09-12T10:26:56.812Z,1014.97
2022-09-12T10:27:54.850Z,1014.94
2022-09-12T10:28:54.759Z,1014.92
2022-09-12T10:29:54.591Z,1014.94
2022-09-12T10:30:54.797Z,1014.94
2022-09-12T10:31:54.594Z,1014.97
2022-09-12T10:32:54.655Z,1014.97
2022-09-12T10:33:54.607Z,1014.92
2022-09-12T10:34:54.331Z,1014.94
2022-09-12T10:35:54.347Z,1014.91
2022-09-12T10:36:54.261Z,1014.93
2022-09-12T10:37:54.323Z,1014.89
2022-09-12T10:38:54.340Z,1014.87
2022-09-12T10:39:54.325Z,1014.85
2022-09-12T10:40:54.256Z,1014.88
2022-09-12T10:41:54.202Z,1014.91
2022-09-12T10:42:54.136Z,1014.91
2022-09-12T10:43:54.283Z,1014.87
2022-09-12T10:44:54.245Z,1014.86
2022-09-12T10:45:54.283Z,1014.84
2022-09-12T10:46:54.351Z,1014.83
2022-09-12T10:47:54.198Z,1014.89
2022-09-12T10:48:54.068Z,1014.87
2022-09-12T10:49:54.256Z,1014.87
2022-09-12T10:50:54.153Z,1014.87
2022-09-12T10:51:54.106Z,1014.82
2022-09-12T10:52:54.269Z,1014.82
2022-09-12T10:53:54.001Z,1014.80
2022-09-12T10:54:54.192Z,1014.78
2022-09-12T10:55:54.165Z,1014.79
2022-09-12T10:56:54.167Z,1014.82
2022-09-12T10:57:53.999Z,1014.76
2022-09-12T10:58:54.159Z,1014.79
2022-09-12T10:59:54.187Z,1014.74
2022-09-12T11:00:54.106Z,1014.80
2022-09-12T11:01:54.179Z,1014.79
2022-09-12T11:02:54.354Z,1014.77
2022-09-12T11:03:54.300Z,1014.75
2022-09-12T11:04:54.160Z,1014.69
2022-09-12T11:05:54.048Z,1014.67
2022-09-12T11:06:54.019Z,1014.67
2022-09-12T11:07:53.982Z,1014.71
2022-09-12T11:08:54.382Z,1014.68
2022-09-12T11:09:54.309Z,1014.69
2022-09-12T11:10:54.101Z,1014.70
2022-09-12T11:11:54.139Z,1014.66
2022-09-12T11:12:54.134Z,1014.69
2022-09-12T11:13:54.051Z,1014.61
2022-09-12T11:14:54.071Z,1014.67
2022-09-12T11:15:54.060Z,1014.63
2022-09-12T11:16:54.195Z,1014.63
2022-09-12T11:17:53.805Z,1014.60
2022-09-12T11:18:54.104Z,1014.62
2022-09-12T11:19:53.850Z,1014.61
2022-09-12T11:20:53.933Z,1014.57
2022-09-12T11:21:54.075Z,1014.61
2022-09-12T11:22:54.054Z,1014.60
2022-09-12T11:23:54.124Z,1014.58
2022-09-12T11:24:53.785Z,1014.60
2022-09-12T11:25:53.686Z,1014.56
2022-09-12T11:26:53.896Z,1014.52
2022-09-12T11:27:53.932Z,1014.55
2022-09-12T11:28:53.928Z,1014.51
2022-09-12T11:29:54.033Z,1014.53
2022-09-12T11:30:53.744Z,1014.49
2022-09-12T11:31:53.702Z,1014.49
2022-09-12T11:32:53.925Z,1014.49
2022-09-12T11:33:56.806Z,1014.54
2022-09-12T11:34:53.807Z,1014.57
2022-09-12T11:35:55.607Z,1014.55
2022-09-12T11:36:53.924Z,1014.49
2022-09-12T11:37:53.739Z,1014.47
2022-09-12T11:38:53.757Z,1014.43
2022-09-12T11:39:55.833Z,1014.45
2022-09-12T11:40:53.685Z,1014.46
2022-09-12T11:41:53.802Z,1014.46
2022-09-12T11:42:53.802Z,1014.43
2022-09-12T11:43:53.836Z,1014.44
2022-09-12T11:44:53.900Z,1014.43
2022-09-12T11:45:54.163Z,1014.47
2022-09-12T11:46:53.892Z,1014.45
2022-09-12T11:47:53.695Z,1014.40
2022-09-12T11:48:53.542Z,1014.43
2022-09-12T11:49:53.837Z,1014.47
2022-09-12T11:50:53.645Z,1014.45
2022-09-12T11:51:53.944Z,1014.40
2022-09-12T11:52:53.727Z,1014.42
2022-09-12T11:53:53.646Z,1014.34
2022-09-12T11:54:54.133Z,1014.29
2022-09-12T11:55:53.308Z,1014.34
2022-09-12T11:56:53.566Z,1014.25
2022-09-12T11:57:53.671Z,1014.29
2022-09-12T11:58:54.204Z,1014.27
2022-09-12T11:59:53.546Z,1014.27
2022-09-12T12:00:53.506Z,1014.28
2022-09-12T12:01:53.523Z,1014.30
2022-09-12T12:02:54.330Z,1014.31
2022-09-12T12:03:54.225Z,1014.27
2022-09-12T12:04:53.560Z,1014.28